Pagina principale
METAR-TAF:

METAR-TAF

Aeroporti :

Aeroporto di Belgrado-Nikola Tesla

Belgrado, Serbia

latitudine: 44-49N, longitudine: 020-17E, altezza: 96 m

Osservazione

Il bollettino è stato emesso 28 minuti fa, alle 02:30 UTC
Vento 3 kt da est/nord-est
Temperature 8°C
Umidità 61%
Pressione 1017 hPa
Visibilità 10 km o più
nessuna nube inferiore a 1500 m e nessun cumulonembo

METAR: LYBE 220230Z 06003KT CAVOK 08/01 Q1017 NOSIG

Ora: 04:58 (02:58 UTC)

Previsione

Il bollettino è stato emesso 3 ore e 58 minuti fa, alle 23:00 UTC
Previsione valida dal 22 alle 00 UTC al 22 alle 24 UTC
Vento 5 kt da ovest/sud-ovest
Visibilità 10 km o più
nessuna nube inferiore a 1500 m e nessun cumulonembo
Evoluzione graduale
dal 22 alle 16 UTC al 22 alle 18 UTC
Vento 18 kt da sud/sud-est

TAF: LYBE 212300Z 2200/2224 24005KT CAVOK TX23/2213Z TN08/2204Z BECMG 2216/2218 16018KT

Osservazioni e previsioni meteorologiche di più di 4000 aeroporti (messaggi METAR e TAF).

Le stazioni disponibili sono rappresentate dai dischi gialli e rossi sulla carta.

Puntare il mouse per vedere il nome della stazione.

Clicca sopra per visualizzare le osservazioni e previsioni meteorologiche.

Per cambiare la mappa : fare clic sui pulsanti verdi con una croce nera per ingrandire, il pulsante verde con un trattino per diminuire, o sulla freccia verde per le mappe adiacenti.


METAR-TAF: